createdAt,value
2019-01-21T00:01:36.838Z,101177.85
2019-01-21T00:04:27.252Z,101183.64
2019-01-21T00:07:17.284Z,101178.95
2019-01-21T00:10:07.421Z,101182.77
2019-01-21T00:12:57.620Z,101176.67
2019-01-21T00:15:48.136Z,101179.66
2019-01-21T00:18:37.999Z,101183.02
2019-01-21T00:21:27.840Z,101187.58
2019-01-21T00:24:17.728Z,101179.66
2019-01-21T00:27:08.094Z,101185.41
2019-01-21T00:29:58.333Z,101179.66
2019-01-21T00:32:47.947Z,101179.53
2019-01-21T00:35:37.839Z,101182.17
2019-01-21T00:38:27.891Z,101181.58
2019-01-21T00:41:18.071Z,101180.25
2019-01-21T00:44:08.154Z,101183.11
2019-01-21T00:46:58.360Z,101181.92
2019-01-21T00:49:48.247Z,101179.41
2019-01-21T00:52:38.604Z,101180.83
2019-01-21T00:55:28.972Z,101179.16
2019-01-21T00:58:19.180Z,101178.44
2019-01-21T01:01:09.111Z,101181.30
2019-01-21T01:03:59.171Z,101179.00
2019-01-21T01:06:48.899Z,101182.11
2019-01-21T01:09:38.587Z,101183.09
2019-01-21T01:12:29.189Z,101186.89
2019-01-21T01:15:19.636Z,101182.11
2019-01-21T01:18:09.572Z,101191.82
2019-01-21T01:20:59.339Z,101201.66
2019-01-21T01:23:49.350Z,101200.89
2019-01-21T01:26:38.905Z,101196.00
2019-01-21T01:29:28.687Z,101199.58
2019-01-21T01:32:18.809Z,101197.19
2019-01-21T01:35:09.947Z,101198.51
2019-01-21T01:38:00.011Z,101193.45
2019-01-21T01:40:49.941Z,101193.58
2019-01-21T01:43:40.256Z,101192.72
2019-01-21T01:46:30.175Z,101195.96
2019-01-21T01:49:20.659Z,101194.86
2019-01-21T01:52:10.920Z,101203.37
2019-01-21T01:55:00.866Z,101197.36
2019-01-21T01:57:53.983Z,101195.92
2019-01-21T02:00:43.717Z,101204.69
2019-01-21T02:03:33.664Z,101199.16
2019-01-21T02:06:23.916Z,101208.52
2019-01-21T02:09:14.189Z,101204.89
2019-01-21T02:12:04.270Z,101209.91
2019-01-21T02:14:53.917Z,101204.85
2019-01-21T02:17:43.512Z,101209.40
2019-01-21T02:20:33.449Z,101198.12
2019-01-21T02:23:30.034Z,101200.77
2019-01-21T02:26:23.532Z,101198.34
2019-01-21T02:29:30.974Z,101200.98
2019-01-21T02:33:13.993Z,101202.89
2019-01-21T02:36:31.806Z,101196.30
2019-01-21T02:40:24.347Z,101193.39
2019-01-21T02:43:57.409Z,101193.86
2019-01-21T02:47:42.898Z,101192.03
2019-01-21T02:51:12.115Z,101186.83
2019-01-21T02:55:01.768Z,101188.95
2019-01-21T02:58:38.563Z,101187.49
2019-01-21T03:02:34.300Z,101193.82
2019-01-21T03:06:00.601Z,101192.42
2019-01-21T03:09:44.070Z,101195.28
2019-01-21T03:13:33.412Z,101194.34
2019-01-21T03:16:50.118Z,101186.17
2019-01-21T03:20:17.589Z,101189.28
2019-01-21T03:24:24.577Z,101184.73
2019-01-21T03:28:15.035Z,101181.16
2019-01-21T03:31:40.686Z,101179.37
2019-01-21T03:35:22.328Z,101184.73
2019-01-21T03:39:05.055Z,101184.05
2019-01-21T03:42:31.142Z,101180.23
2019-01-21T03:46:21.335Z,101181.81
2019-01-21T03:49:27.833Z,101182.47
2019-01-21T03:52:44.519Z,101184.09
2019-01-21T03:55:35.291Z,101187.62
2019-01-21T03:59:09.765Z,101183.84
2019-01-21T04:02:44.481Z,101191.19
2019-01-21T04:06:05.419Z,101183.66
2019-01-21T04:10:02.353Z,101187.86
2019-01-21T04:13:24.274Z,101181.98
2019-01-21T04:16:43.113Z,101188.12
2019-01-21T04:19:51.240Z,101185.25
2019-01-21T04:26:57.949Z,101190.59
2019-01-21T04:30:42.368Z,101194.32
2019-01-21T04:34:41.611Z,101198.88
2019-01-21T04:38:37.649Z,101203.70
2019-01-21T04:42:06.035Z,101196.05
2019-01-21T04:45:45.094Z,101194.23
2019-01-21T04:49:48.796Z,101194.50
2019-01-21T04:53:05.212Z,101194.13
2019-01-21T04:56:52.203Z,101196.31
2019-01-21T05:00:32.577Z,101190.30
2019-01-21T05:04:10.356Z,101195.56
2019-01-21T05:07:48.857Z,101187.88
2019-01-21T05:11:29.600Z,101183.08
2019-01-21T05:14:56.722Z,101186.91
2019-01-21T05:18:41.256Z,101185.94
2019-01-21T05:22:25.291Z,101191.12
2019-01-21T05:26:05.721Z,101190.16
2019-01-21T05:29:40.252Z,101192.44
2019-01-21T05:33:42.551Z,101195.32
2019-01-21T05:37:16.655Z,101201.22
2019-01-21T05:40:46.630Z,101192.07
2019-01-21T05:44:35.566Z,101199.66
2019-01-21T05:48:18.038Z,101199.77
2019-01-21T05:52:01.866Z,101207.70
2019-01-21T05:55:07.335Z,101202.17
2019-01-21T05:58:34.650Z,101206.98
2019-01-21T06:02:30.131Z,101203.98
2019-01-21T06:06:18.956Z,101207.67
2019-01-21T06:10:16.166Z,101208.66
2019-01-21T06:13:48.580Z,101211.17
2019-01-21T06:17:23.462Z,101211.88
2019-01-21T06:20:54.612Z,101210.43
2019-01-21T06:24:51.821Z,101209.72
2019-01-21T06:28:36.858Z,101206.34
2019-01-21T06:32:15.907Z,101204.64
2019-01-21T06:35:46.331Z,101209.45
2019-01-21T06:39:29.736Z,101213.77
2019-01-21T06:43:02.760Z,101208.38
2019-01-21T06:46:48.197Z,101220.03
2019-01-21T06:50:26.681Z,101220.37
2019-01-21T06:54:25.801Z,101215.56
2019-01-21T06:58:16.436Z,101217.36
2019-01-21T07:01:44.069Z,101215.19
2019-01-21T07:05:39.702Z,101212.17
2019-01-21T07:09:22.248Z,101211.42
2019-01-21T07:12:48.499Z,101216.00
2019-01-21T07:16:21.024Z,101219.02
2019-01-21T07:19:48.940Z,101218.17
2019-01-21T07:23:36.699Z,101223.23
2019-01-21T07:27:09.277Z,101217.56
2019-01-21T07:30:52.761Z,101225.16
2019-01-21T07:34:36.286Z,101222.86
2019-01-21T07:38:04.935Z,101223.94
2019-01-21T07:41:24.347Z,101227.91
2019-01-21T07:45:04.157Z,101221.39
2019-01-21T07:48:33.251Z,101217.89
2019-01-21T07:52:13.914Z,101226.55
2019-01-21T07:55:59.028Z,101226.64
2019-01-21T08:00:12.280Z,101226.41
2019-01-21T08:03:49.358Z,101224.70
2019-01-21T08:07:38.973Z,101224.00
2019-01-21T08:11:36.129Z,101232.17
2019-01-21T08:14:54.931Z,101232.16
2019-01-21T08:18:41.363Z,101236.52
2019-01-21T08:22:20.784Z,101238.89
2019-01-21T08:26:13.227Z,101239.97
2019-01-21T08:30:00.970Z,101241.53
2019-01-21T08:33:46.673Z,101240.82
2019-01-21T08:37:28.064Z,101245.26
2019-01-21T08:41:30.423Z,101243.23
2019-01-21T08:45:02.609Z,101243.47
2019-01-21T08:48:46.947Z,101250.46
2019-01-21T08:52:46.918Z,101250.70
2019-01-21T08:56:29.426Z,101260.20
2019-01-21T08:59:51.240Z,101255.14
2019-01-21T09:03:28.039Z,101252.97
2019-01-21T09:06:45.558Z,101247.44
2019-01-21T09:10:15.672Z,101249.66
2019-01-21T09:13:47.768Z,101250.59
2019-01-21T09:17:13.625Z,101256.70
2019-01-21T09:20:45.888Z,101257.55
2019-01-21T09:24:37.196Z,101262.71
2019-01-21T09:28:29.219Z,101267.63
2019-01-21T09:32:07.855Z,101264.47
2019-01-21T09:35:51.787Z,101261.82
2019-01-21T09:39:58.922Z,101267.96
2019-01-21T09:43:15.529Z,101265.88
2019-01-21T09:46:51.392Z,101277.03
2019-01-21T09:49:43.668Z,101271.95
2019-01-21T09:52:30.824Z,101268.16
2019-01-21T09:55:23.469Z,101271.37
2019-01-21T09:58:13.175Z,101272.77
2019-01-21T10:01:03.859Z,101272.38
2019-01-21T10:03:55.378Z,101269.33
2019-01-21T10:07:11.253Z,101269.56
2019-01-21T10:10:26.368Z,101263.37
2019-01-21T10:14:16.751Z,101264.09
2019-01-21T10:17:43.965Z,101261.39
2019-01-21T10:21:22.493Z,101261.50
2019-01-21T10:25:07.809Z,101257.74
2019-01-21T10:28:48.017Z,101248.60
2019-01-21T10:32:37.406Z,101253.06
2019-01-21T10:36:15.177Z,101249.34
2019-01-21T10:39:51.513Z,101241.27
2019-01-21T10:43:35.062Z,101232.20
2019-01-21T10:47:28.639Z,101224.33
2019-01-21T10:51:01.330Z,101218.95
2019-01-21T10:54:32.794Z,101213.35
2019-01-21T10:57:46.178Z,101215.97
2019-01-21T11:01:38.017Z,101209.96
2019-01-21T11:05:26.657Z,101204.84
2019-01-21T11:09:17.076Z,101199.50
2019-01-21T11:12:37.225Z,101196.33
2019-01-21T11:16:08.163Z,101197.44
2019-01-21T11:19:44.315Z,101192.70
2019-01-21T11:23:22.757Z,101192.02
2019-01-21T11:27:18.571Z,101186.91
2019-01-21T11:31:04.935Z,101179.28
2019-01-21T11:34:55.588Z,101156.77
2019-01-21T11:38:50.483Z,101152.09
2019-01-21T11:42:26.808Z,101155.11
2019-01-21T11:45:57.485Z,101147.41
2019-01-21T11:49:44.726Z,101149.86
2019-01-21T11:53:02.671Z,101147.26
2019-01-21T11:56:34.186Z,101143.06
2019-01-21T12:00:21.136Z,101135.66
2019-01-21T12:03:55.544Z,101129.40
2019-01-21T12:07:36.258Z,101127.57
2019-01-21T12:11:21.091Z,101117.35
2019-01-21T12:15:31.418Z,101110.76
2019-01-21T12:19:19.083Z,101112.83
2019-01-21T12:23:03.191Z,101105.26
2019-01-21T12:26:52.385Z,101093.94
2019-01-21T12:30:34.512Z,101096.88
2019-01-21T12:34:00.310Z,101090.31
2019-01-21T12:37:15.895Z,101080.25
2019-01-21T12:40:46.302Z,101075.50
2019-01-21T12:44:43.849Z,101056.03
2019-01-21T12:48:01.154Z,101054.37
2019-01-21T12:51:33.017Z,101047.28
2019-01-21T12:55:04.018Z,101044.50
2019-01-21T12:58:31.100Z,101036.23
2019-01-21T13:01:37.302Z,101038.97
2019-01-21T13:05:09.588Z,101026.70
2019-01-21T13:08:49.570Z,101026.06
2019-01-21T13:12:18.945Z,101019.41
2019-01-21T13:15:55.380Z,101027.32
2019-01-21T13:19:59.727Z,101019.98
2019-01-21T13:23:12.334Z,101011.36
2019-01-21T13:26:33.878Z,101022.72
2019-01-21T13:30:06.677Z,101025.80
2019-01-21T13:33:32.976Z,101008.41
2019-01-21T13:36:54.522Z,101006.63
2019-01-21T13:41:05.995Z,101003.50
2019-01-21T13:44:57.435Z,100986.02
2019-01-21T13:48:43.036Z,100979.14
2019-01-21T13:52:28.505Z,100972.80
2019-01-21T13:56:36.171Z,100969.44
2019-01-21T14:00:18.576Z,100972.20
2019-01-21T14:04:20.798Z,100967.11
2019-01-21T14:08:12.298Z,100957.77
2019-01-21T14:11:39.010Z,100961.72
2019-01-21T14:15:53.591Z,100959.36
2019-01-21T14:19:18.441Z,100963.86
2019-01-21T14:22:55.214Z,100957.73
2019-01-21T14:26:39.802Z,100954.42
2019-01-21T14:30:31.469Z,100950.08
2019-01-21T14:33:43.917Z,100955.78
2019-01-21T14:37:35.297Z,100945.31
2019-01-21T14:41:32.408Z,100956.76
2019-01-21T14:45:04.714Z,100957.77
2019-01-21T14:49:04.808Z,100943.78
2019-01-21T14:52:59.393Z,100951.89
2019-01-21T14:56:13.754Z,100951.66
2019-01-21T14:59:52.850Z,100955.33
2019-01-21T15:03:47.347Z,100946.16
2019-01-21T15:07:08.956Z,100944.59
2019-01-21T15:10:59.836Z,100944.84
2019-01-21T15:14:19.397Z,100948.80
2019-01-21T15:17:44.911Z,100953.00
2019-01-21T15:21:22.991Z,100948.97
2019-01-21T15:24:48.305Z,100946.60
2019-01-21T15:28:27.315Z,100938.67
2019-01-21T15:31:43.256Z,100929.30
2019-01-21T15:35:38.518Z,100920.92
2019-01-21T15:39:34.477Z,100916.50
2019-01-21T15:42:49.992Z,100914.92
2019-01-21T15:46:34.976Z,100909.01
2019-01-21T15:50:02.376Z,100911.55
2019-01-21T15:53:24.205Z,100916.53
2019-01-21T15:57:28.684Z,100918.93
2019-01-21T16:01:07.869Z,100921.82
2019-01-21T16:04:40.052Z,100913.19
2019-01-21T16:07:59.908Z,100913.00
2019-01-21T16:11:45.395Z,100916.03
2019-01-21T16:15:00.857Z,100906.70
2019-01-21T16:18:36.206Z,100914.19
2019-01-21T16:22:33.565Z,100914.31
2019-01-21T16:25:44.126Z,100922.05
2019-01-21T16:29:32.459Z,100925.29
2019-01-21T16:32:30.978Z,100924.32
2019-01-21T16:35:55.713Z,100913.62
2019-01-21T16:39:51.129Z,100912.23
2019-01-21T16:42:41.292Z,100908.05
2019-01-21T16:45:31.353Z,100915.11
2019-01-21T16:48:21.461Z,100905.61
2019-01-21T16:51:12.446Z,100910.70
2019-01-21T16:54:02.358Z,100899.62
2019-01-21T16:56:52.172Z,100901.21
2019-01-21T16:59:41.845Z,100904.17
2019-01-21T17:02:31.975Z,100899.28
2019-01-21T17:05:22.029Z,100891.75
2019-01-21T17:08:12.008Z,100892.80
2019-01-21T17:11:01.503Z,100893.70
2019-01-21T17:13:51.203Z,100897.31
2019-01-21T17:16:41.244Z,100898.64
2019-01-21T17:19:31.555Z,100900.12
2019-01-21T17:22:20.589Z,100896.84
2019-01-21T17:25:10.668Z,100895.30
2019-01-21T17:28:00.752Z,100891.59
2019-01-21T17:30:51.041Z,100891.89
2019-01-21T17:33:41.020Z,100888.95
2019-01-21T17:36:30.857Z,100887.05
2019-01-21T17:39:20.731Z,100885.66
2019-01-21T17:42:10.660Z,100881.84
2019-01-21T17:45:01.528Z,100885.81
2019-01-21T17:47:52.177Z,100880.30
2019-01-21T17:50:42.222Z,100881.67
2019-01-21T17:53:32.483Z,100877.75
2019-01-21T17:56:22.515Z,100868.77
2019-01-21T17:59:12.566Z,100871.69
2019-01-21T18:02:02.819Z,100876.28
2019-01-21T18:04:53.923Z,100866.54
2019-01-21T18:07:44.584Z,100855.03
2019-01-21T18:10:34.596Z,100857.47
2019-01-21T18:13:24.482Z,100853.42
2019-01-21T18:16:14.649Z,100852.80
2019-01-21T18:19:04.677Z,100840.44
2019-01-21T18:21:54.396Z,100846.84
2019-01-21T18:24:44.040Z,100857.17
2019-01-21T18:27:34.756Z,100850.56
2019-01-21T18:30:27.670Z,100836.66
2019-01-21T18:33:17.379Z,100846.34
2019-01-21T18:36:06.759Z,100849.25
2019-01-21T18:38:56.496Z,100850.35
2019-01-21T18:41:46.991Z,100858.70
2019-01-21T18:44:36.678Z,100850.35
2019-01-21T18:47:26.562Z,100852.42
2019-01-21T18:50:16.558Z,100856.45
2019-01-21T18:53:06.065Z,100851.53
2019-01-21T18:55:56.580Z,100853.07
2019-01-21T18:58:47.260Z,100847.05
2019-01-21T19:01:37.185Z,100845.93
2019-01-21T19:04:27.394Z,100846.41
2019-01-21T19:07:16.847Z,100856.41
2019-01-21T19:10:09.347Z,100857.16
2019-01-21T19:12:59.046Z,100867.52
2019-01-21T19:15:49.117Z,100878.25
2019-01-21T19:18:39.169Z,100870.95
2019-01-21T19:21:29.449Z,100871.09
2019-01-21T19:24:19.463Z,100874.72
2019-01-21T19:27:09.573Z,100870.53
2019-01-21T19:29:59.623Z,100862.88
2019-01-21T19:32:50.076Z,100873.25
2019-01-21T19:35:40.376Z,100874.23
2019-01-21T19:38:30.270Z,100869.20
2019-01-21T19:41:20.485Z,100872.23
2019-01-21T19:44:10.371Z,100871.16
2019-01-21T19:47:00.960Z,100868.80
2019-01-21T19:49:51.076Z,100867.86
2019-01-21T19:52:41.783Z,100858.95
2019-01-21T19:55:42.486Z,100861.88
2019-01-21T19:58:32.776Z,100862.45
2019-01-21T20:01:23.086Z,100854.76
2019-01-21T20:04:13.386Z,100854.89
2019-01-21T20:07:02.773Z,100853.72
2019-01-21T20:09:52.728Z,100848.06
2019-01-21T20:12:42.956Z,100842.91
2019-01-21T20:15:32.414Z,100836.19
2019-01-21T20:18:22.205Z,100839.81
2019-01-21T20:21:12.539Z,100829.00
2019-01-21T20:24:02.832Z,100830.55
2019-01-21T20:26:52.971Z,100830.02
2019-01-21T20:30:31.757Z,100828.22
2019-01-21T20:36:48.143Z,100811.58
2019-01-21T20:39:38.228Z,100803.73
2019-01-21T20:42:41.502Z,100810.17
2019-01-21T20:45:37.377Z,100805.11
2019-01-21T20:48:27.042Z,100810.48
2019-01-21T20:51:16.956Z,100808.68
2019-01-21T20:54:06.923Z,100807.44
2019-01-21T20:56:57.224Z,100811.41
2019-01-21T20:59:46.979Z,100812.36
2019-01-21T21:02:36.970Z,100805.27
2019-01-21T21:05:27.009Z,100798.44
2019-01-21T21:08:17.476Z,100793.52
2019-01-21T21:11:07.263Z,100792.20
2019-01-21T21:13:57.786Z,100785.81
2019-01-21T21:16:49.758Z,100794.30
2019-01-21T21:19:40.105Z,100787.80
2019-01-21T21:22:30.047Z,100791.84
2019-01-21T21:25:21.887Z,100782.22
2019-01-21T21:28:13.476Z,100780.98
2019-01-21T21:31:04.097Z,100780.16
2019-01-21T21:33:54.547Z,100783.77
2019-01-21T21:36:45.007Z,100786.55
2019-01-21T21:39:35.100Z,100781.19
2019-01-21T21:42:25.238Z,100784.42
2019-01-21T21:45:17.280Z,100781.70
2019-01-21T21:48:07.375Z,100771.27
2019-01-21T21:50:57.270Z,100770.64
2019-01-21T21:53:47.001Z,100776.81
2019-01-21T21:56:36.901Z,100779.23
2019-01-21T21:59:26.806Z,100774.23
2019-01-21T22:02:16.634Z,100780.11
2019-01-21T22:05:08.249Z,100777.30
2019-01-21T22:07:57.857Z,100768.67
2019-01-21T22:10:47.978Z,100763.33
2019-01-21T22:13:37.904Z,100769.86
2019-01-21T22:16:27.794Z,100767.21
2019-01-21T22:19:17.763Z,100760.86
2019-01-21T22:22:08.128Z,100761.25
2019-01-21T22:24:57.685Z,100760.18
2019-01-21T22:27:47.769Z,100755.88
2019-01-21T22:30:37.646Z,100743.99
2019-01-21T22:33:27.286Z,100745.42
2019-01-21T22:36:17.113Z,100744.33
2019-01-21T22:39:09.156Z,100741.69
2019-01-21T22:42:00.018Z,100747.09
2019-01-21T22:44:49.832Z,100744.75
2019-01-21T22:47:40.403Z,100742.81
2019-01-21T22:50:30.831Z,100750.27
2019-01-21T22:53:23.505Z,100738.63
2019-01-21T22:56:12.250Z,100738.63
2019-01-21T22:59:01.951Z,100733.95
2019-01-21T23:01:51.932Z,100740.56
2019-01-21T23:04:41.992Z,100745.00
2019-01-21T23:07:31.940Z,100732.89
2019-01-21T23:10:21.842Z,100730.39
2019-01-21T23:13:12.080Z,100733.34
2019-01-21T23:16:02.373Z,100728.64
2019-01-21T23:18:52.328Z,100724.34
2019-01-21T23:21:41.995Z,100719.06
2019-01-21T23:24:31.626Z,100716.90
2019-01-21T23:27:22.063Z,100719.77
2019-01-21T23:30:14.206Z,100715.80
2019-01-21T23:33:04.457Z,100715.80
2019-01-21T23:35:54.719Z,100712.06
2019-01-21T23:38:44.867Z,100716.25
2019-01-21T23:41:35.139Z,100715.05
2019-01-21T23:44:25.488Z,100709.56
2019-01-21T23:47:15.189Z,100709.45
2019-01-21T23:50:05.799Z,100706.73
2019-01-21T23:52:56.286Z,100703.16
2019-01-21T23:55:46.776Z,100702.83
2019-01-21T23:58:36.613Z,100702.38
